Time;durP1;ratioP1;P1;durP2;ratioP2;P2;SDS_P1;SDS_P2;PMS_P1;PMS_P2;Temp;Humidity;BMP_temperature;BMP_pressure;BME280_temperature;BME280_humidity;BME280_pressure;Samples;Min_cycle;Max_cycle;Signal;HPM_P1;HPM_P2
2021/12/23 00:02:18;;;;;;;23.17;9.10;;;;;;;;;;6235979;22;20171;-87
2021/12/23 00:05:23;;;;;;;21.03;8.27;;;;;;;;;;6234912;22;20195;-86
2021/12/23 00:08:36;;;;;;;15.43;7.03;;;;;;;;;;6235338;22;20175;-88
2021/12/23 00:11:41;;;;;;;25.87;9.10;;;;;;;;;;6235435;22;20222;-88
2021/12/23 00:14:49;;;;;;;19.70;7.93;;;;;;;;;;6234983;22;20159;-85
2021/12/23 00:17:58;;;;;;;18.57;7.40;;;;;;;;;;6233770;23;20615;-89
2021/12/23 00:24:29;;;;;;;19.37;8.37;;;;;;;;;;6249412;23;20155;-92
2021/12/23 00:27:35;;;;;;;22.67;8.57;;;;;;;;;;6252996;23;20215;-90
2021/12/23 00:30:40;;;;;;;19.37;7.77;;;;;;;;;;6235379;22;20167;-90
2021/12/23 00:33:46;;;;;;;20.57;7.97;;;;;;;;;;6236195;23;20168;-90
2021/12/23 00:36:53;;;;;;;22.70;8.67;;;;;;;;;;6233259;22;20166;-89
2021/12/23 00:40:00;;;;;;;20.57;8.13;;;;;;;;;;6234032;22;20174;-89
2021/12/23 00:43:05;;;;;;;27.70;8.87;;;;;;;;;;6251090;22;20150;-89
2021/12/23 00:46:11;;;;;;;21.13;8.50;;;;;;;;;;6237264;23;20242;-89
2021/12/23 00:49:16;;;;;;;19.53;8.47;;;;;;;;;;6236409;22;20617;-90
2021/12/23 00:52:28;;;;;;;20.23;9.10;;;;;;;;;;6235507;22;20194;-86
2021/12/23 00:55:36;;;;;;;18.80;8.47;;;;;;;;;;6234045;22;20171;-89
2021/12/23 00:58:41;;;;;;;22.23;7.30;;;;;;;;;;6235420;22;20175;-88
2021/12/23 01:01:50;;;;;;;22.77;8.80;;;;;;;;;;6234781;22;20176;-90
2021/12/23 01:04:55;;;;;;;19.53;8.73;;;;;;;;;;6250995;22;20219;-90
2021/12/23 01:08:01;;;;;;;20.27;8.50;;;;;;;;;;6233266;22;20195;-87
2021/12/23 01:11:09;;;;;;;21.77;7.97;;;;;;;;;;6234966;22;20221;-87
2021/12/23 01:14:39;;;;;;;20.83;8.97;;;;;;;;;;6234453;23;20215;-86
2021/12/23 01:17:55;;;;;;;21.67;8.57;;;;;;;;;;6234880;22;20170;-87
2021/12/23 01:21:15;;;;;;;16.93;8.37;;;;;;;;;;6234760;22;20270;-88
2021/12/23 01:24:23;;;;;;;21.10;8.77;;;;;;;;;;6234712;22;20222;-89
2021/12/23 01:27:30;;;;;;;20.43;8.53;;;;;;;;;;6232792;23;20198;-89
2021/12/23 01:30:37;;;;;;;23.23;9.57;;;;;;;;;;6234016;22;20159;-90
2021/12/23 01:33:43;;;;;;;19.63;8.63;;;;;;;;;;6216728;22;20158;-89
2021/12/23 01:36:48;;;;;;;26.03;9.60;;;;;;;;;;6235005;22;20175;-91
2021/12/23 01:39:53;;;;;;;18.53;8.07;;;;;;;;;;6232938;22;20162;-89
2021/12/23 01:43:00;;;;;;;19.73;8.77;;;;;;;;;;6232476;22;20194;-90
2021/12/23 01:46:05;;;;;;;24.53;8.80;;;;;;;;;;6231888;22;20190;-90
2021/12/23 01:49:11;;;;;;;18.97;7.43;;;;;;;;;;6233550;22;20150;-91
2021/12/23 01:52:16;;;;;;;22.10;8.53;;;;;;;;;;6232449;22;20191;-88
2021/12/23 01:55:21;;;;;;;24.10;8.07;;;;;;;;;;6232626;22;20166;-89
2021/12/23 01:58:28;;;;;;;21.23;8.00;;;;;;;;;;6233286;23;20156;-91
2021/12/23 02:01:34;;;;;;;20.17;7.73;;;;;;;;;;6232726;22;20213;-89
2021/12/23 02:04:39;;;;;;;22.60;9.20;;;;;;;;;;6233710;23;20167;-89
2021/12/23 02:07:44;;;;;;;19.97;7.57;;;;;;;;;;6233121;22;20231;-88
2021/12/23 02:10:50;;;;;;;19.80;8.23;;;;;;;;;;6233602;22;20171;-88
2021/12/23 02:13:57;;;;;;;21.50;8.17;;;;;;;;;;6233381;22;20187;-87
2021/12/23 02:17:02;;;;;;;19.77;7.97;;;;;;;;;;6231305;22;20171;-88
2021/12/23 02:20:11;;;;;;;18.97;7.73;;;;;;;;;;6233720;22;20151;-87
2021/12/23 02:23:16;;;;;;;18.30;8.07;;;;;;;;;;6231318;22;20163;-88
2021/12/23 02:26:21;;;;;;;19.93;8.30;;;;;;;;;;6231611;23;20199;-90
2021/12/23 02:29:28;;;;;;;23.13;8.67;;;;;;;;;;6231274;22;20773;-86
2021/12/23 02:32:33;;;;;;;17.73;7.80;;;;;;;;;;6230873;22;20235;-88
2021/12/23 02:35:43;;;;;;;17.40;7.77;;;;;;;;;;6232047;22;20158;-90
2021/12/23 02:38:49;;;;;;;21.57;8.07;;;;;;;;;;6232201;22;20171;-89
2021/12/23 02:41:54;;;;;;;21.50;9.00;;;;;;;;;;6231489;22;20175;-88
2021/12/23 02:45:01;;;;;;;20.40;7.30;;;;;;;;;;6231052;22;20164;-90
2021/12/23 02:48:11;;;;;;;19.33;7.53;;;;;;;;;;6231526;22;20171;-88
2021/12/23 02:51:18;;;;;;;25.00;8.07;;;;;;;;;;6231925;22;20665;-91
2021/12/23 02:54:24;;;;;;;18.57;8.40;;;;;;;;;;6232199;22;20171;-90
2021/12/23 02:57:31;;;;;;;15.67;6.93;;;;;;;;;;6231817;22;20171;-88
2021/12/23 03:00:37;;;;;;;18.07;8.33;;;;;;;;;;6231221;23;20222;-89
2021/12/23 03:03:43;;;;;;;20.13;7.27;;;;;;;;;;6231520;22;20211;-89
2021/12/23 03:06:50;;;;;;;25.63;9.30;;;;;;;;;;6231167;22;20231;-88
2021/12/23 03:09:55;;;;;;;23.00;8.23;;;;;;;;;;6232247;22;20166;-89
2021/12/23 03:13:01;;;;;;;20.57;8.03;;;;;;;;;;6231268;23;20635;-87
2021/12/23 03:16:07;;;;;;;16.67;7.33;;;;;;;;;;6234557;22;20194;-88
2021/12/23 03:19:13;;;;;;;20.33;8.27;;;;;;;;;;6234195;23;20175;-90
2021/12/23 03:22:20;;;;;;;18.07;7.67;;;;;;;;;;6234915;22;20650;-91
2021/12/23 03:25:27;;;;;;;23.00;8.50;;;;;;;;;;6234805;23;20207;-91
2021/12/23 03:28:32;;;;;;;15.40;6.67;;;;;;;;;;6234955;22;20170;-88
2021/12/23 03:31:38;;;;;;;23.63;9.03;;;;;;;;;;6233871;23;20216;-88
2021/12/23 03:34:44;;;;;;;17.70;8.00;;;;;;;;;;6234905;22;20151;-90
2021/12/23 03:37:54;;;;;;;19.03;8.30;;;;;;;;;;6232904;22;20210;-92
2021/12/23 03:40:59;;;;;;;23.57;8.80;;;;;;;;;;6250464;22;20175;-89
2021/12/23 03:44:05;;;;;;;23.13;8.63;;;;;;;;;;6232608;23;20235;-90
2021/12/23 03:47:10;;;;;;;23.43;8.87;;;;;;;;;;6252401;22;20191;-88
2021/12/23 03:50:17;;;;;;;18.10;7.70;;;;;;;;;;6236454;23;20236;-89
2021/12/23 03:53:24;;;;;;;21.87;7.53;;;;;;;;;;6234414;22;20681;-90
2021/12/23 03:56:30;;;;;;;17.93;8.23;;;;;;;;;;6236203;22;20167;-89
2021/12/23 03:59:36;;;;;;;24.60;8.63;;;;;;;;;;6235345;22;20236;-89
2021/12/23 04:02:41;;;;;;;25.40;8.13;;;;;;;;;;6234594;22;20159;-88
2021/12/23 04:05:52;;;;;;;23.43;7.87;;;;;;;;;;6236077;22;20210;-87
2021/12/23 04:09:15;;;;;;;18.57;8.03;;;;;;;;;;6235517;22;20200;-90
2021/12/23 04:12:21;;;;;;;22.20;8.43;;;;;;;;;;6235928;22;20183;-90
2021/12/23 04:15:29;;;;;;;22.50;7.53;;;;;;;;;;6236708;22;20191;-90
2021/12/23 04:18:44;;;;;;;19.30;7.93;;;;;;;;;;6234360;23;20168;-89
2021/12/23 04:21:53;;;;;;;17.50;7.40;;;;;;;;;;6234695;22;20241;-88
2021/12/23 04:25:00;;;;;;;20.80;7.37;;;;;;;;;;6234310;22;20168;-88
2021/12/23 04:28:08;;;;;;;23.50;8.60;;;;;;;;;;6234472;22;20238;-89
2021/12/23 04:31:13;;;;;;;19.57;8.57;;;;;;;;;;6233531;22;20231;-90
2021/12/23 04:34:20;;;;;;;22.37;8.43;;;;;;;;;;6234229;22;20159;-90
2021/12/23 04:37:26;;;;;;;17.30;7.63;;;;;;;;;;6234402;23;20191;-90
2021/12/23 04:40:34;;;;;;;23.00;8.77;;;;;;;;;;6235082;22;20487;-89
2021/12/23 04:43:41;;;;;;;21.13;7.63;;;;;;;;;;6234087;22;20179;-88
2021/12/23 04:46:50;;;;;;;22.87;8.47;;;;;;;;;;6252271;22;20194;-89
2021/12/23 04:49:56;;;;;;;20.90;7.70;;;;;;;;;;6234667;22;20190;-90
2021/12/23 04:53:03;;;;;;;15.60;6.47;;;;;;;;;;6235892;22;20155;-88
2021/12/23 04:56:10;;;;;;;22.97;8.37;;;;;;;;;;6236117;22;20216;-89
2021/12/23 04:59:15;;;;;;;20.43;6.07;;;;;;;;;;6236024;22;20170;-90
2021/12/23 05:02:52;;;;;;;19.80;7.80;;;;;;;;;;6238174;22;20204;-88
2021/12/23 05:06:01;;;;;;;15.03;7.33;;;;;;;;;;6239524;22;20216;-88
2021/12/23 05:09:06;;;;;;;19.17;7.67;;;;;;;;;;6234947;23;20203;-88
2021/12/23 05:12:15;;;;;;;22.30;8.10;;;;;;;;;;6235412;22;20526;-88
2021/12/23 05:15:21;;;;;;;22.43;8.33;;;;;;;;;;6234429;22;20234;-89
2021/12/23 05:18:28;;;;;;;16.90;7.57;;;;;;;;;;6254365;22;20179;-88
2021/12/23 05:21:34;;;;;;;20.30;7.23;;;;;;;;;;6235305;22;20163;-87
2021/12/23 05:24:40;;;;;;;21.47;7.87;;;;;;;;;;6235988;22;20219;-90
2021/12/23 05:27:52;;;;;;;20.43;7.73;;;;;;;;;;6235665;22;20238;-88
2021/12/23 05:31:02;;;;;;;17.93;7.60;;;;;;;;;;6250898;22;20167;-87
2021/12/23 05:34:08;;;;;;;15.60;6.83;;;;;;;;;;6234163;23;20175;-89
2021/12/23 05:37:13;;;;;;;18.33;6.43;;;;;;;;;;6234797;22;20175;-88
2021/12/23 05:40:20;;;;;;;20.77;8.37;;;;;;;;;;6233729;22;20228;-88
2021/12/23 05:43:35;;;;;;;18.60;7.90;;;;;;;;;;6234064;23;20170;-88
2021/12/23 05:46:44;;;;;;;27.70;8.33;;;;;;;;;;6233702;23;20207;-88
2021/12/23 05:49:49;;;;;;;19.30;6.67;;;;;;;;;;6232765;22;20564;-89
2021/12/23 05:52:55;;;;;;;26.27;8.33;;;;;;;;;;6229852;22;20714;-88
2021/12/23 05:56:01;;;;;;;24.30;8.37;;;;;;;;;;6233677;22;20167;-89
2021/12/23 05:59:08;;;;;;;18.60;7.70;;;;;;;;;;6233425;22;20170;-90
2021/12/23 06:02:13;;;;;;;19.80;7.93;;;;;;;;;;6233061;22;20159;-88
2021/12/23 06:05:25;;;;;;;21.37;8.23;;;;;;;;;;6229211;23;20170;-89
2021/12/23 06:08:31;;;;;;;22.90;7.90;;;;;;;;;;6234395;23;20195;-88
2021/12/23 06:11:36;;;;;;;15.27;6.37;;;;;;;;;;6233951;22;20167;-88
2021/12/23 06:14:44;;;;;;;16.47;6.97;;;;;;;;;;6252008;23;20550;-89
2021/12/23 06:17:49;;;;;;;15.80;6.30;;;;;;;;;;6233554;22;20167;-90
2021/12/23 06:20:55;;;;;;;14.77;6.27;;;;;;;;;;6234663;22;20174;-90
2021/12/23 06:24:07;;;;;;;22.50;7.93;;;;;;;;;;6232132;23;20255;-88
2021/12/23 06:27:12;;;;;;;19.90;8.13;;;;;;;;;;6232183;23;20575;-88
2021/12/23 06:30:21;;;;;;;19.07;8.23;;;;;;;;;;6232891;22;20229;-90
2021/12/23 06:33:26;;;;;;;21.57;8.23;;;;;;;;;;6233476;22;20195;-89
2021/12/23 06:39:50;;;;;;;23.50;7.10;;;;;;;;;;6233492;22;20182;-90
2021/12/23 06:43:00;;;;;;;20.50;8.10;;;;;;;;;;6233677;22;20179;-88
2021/12/23 06:46:07;;;;;;;20.57;8.53;;;;;;;;;;6232830;23;20174;-90
2021/12/23 06:49:14;;;;;;;30.10;9.67;;;;;;;;;;6231373;22;20178;-87
2021/12/23 06:52:19;;;;;;;30.67;11.57;;;;;;;;;;6236828;22;20178;-88
2021/12/23 06:55:24;;;;;;;27.23;10.47;;;;;;;;;;6235672;22;20175;-88
2021/12/23 06:58:31;;;;;;;22.93;9.10;;;;;;;;;;6234666;23;20175;-88
2021/12/23 07:01:39;;;;;;;25.80;8.70;;;;;;;;;;6234682;22;20162;-90
2021/12/23 07:04:45;;;;;;;20.23;8.73;;;;;;;;;;6252859;23;20171;-89
2021/12/23 07:08:07;;;;;;;28.07;11.03;;;;;;;;;;6234646;22;20692;-87
2021/12/23 07:11:13;;;;;;;26.47;9.00;;;;;;;;;;6235495;23;20191;-87
2021/12/23 07:14:18;;;;;;;25.60;10.80;;;;;;;;;;6235003;23;20172;-88
2021/12/23 07:17:25;;;;;;;24.20;8.83;;;;;;;;;;6235294;22;20591;-88
2021/12/23 07:20:31;;;;;;;26.70;10.03;;;;;;;;;;6238807;22;20186;-87
2021/12/23 07:23:37;;;;;;;32.50;10.10;;;;;;;;;;6234193;23;20500;-89
2021/12/23 07:26:44;;;;;;;27.97;9.60;;;;;;;;;;6236131;23;20174;-88
2021/12/23 07:29:57;;;;;;;25.90;9.40;;;;;;;;;;6235667;23;20327;-88
2021/12/23 07:33:04;;;;;;;30.00;9.77;;;;;;;;;;6236381;22;20201;-89
2021/12/23 07:36:09;;;;;;;30.10;11.53;;;;;;;;;;6236105;23;20167;-88
2021/12/23 07:39:18;;;;;;;30.57;10.80;;;;;;;;;;6234161;23;20251;-87
2021/12/23 07:42:25;;;;;;;25.77;10.07;;;;;;;;;;6233894;23;20167;-89
2021/12/23 07:45:33;;;;;;;39.03;11.97;;;;;;;;;;6233972;22;20221;-89
2021/12/23 07:48:43;;;;;;;26.83;10.17;;;;;;;;;;6234046;22;20218;-88
2021/12/23 07:51:50;;;;;;;30.50;10.03;;;;;;;;;;6232942;22;20263;-88
2021/12/23 07:54:56;;;;;;;26.60;9.87;;;;;;;;;;6234697;22;20163;-88
2021/12/23 07:58:01;;;;;;;27.67;9.67;;;;;;;;;;6235608;22;20190;-90
2021/12/23 08:01:07;;;;;;;28.43;11.33;;;;;;;;;;6234334;23;20219;-87
2021/12/23 08:04:13;;;;;;;27.97;11.13;;;;;;;;;;6234814;22;20235;-86
2021/12/23 08:07:18;;;;;;;29.40;12.97;;;;;;;;;;6235790;22;20246;-87
2021/12/23 08:10:24;;;;;;;34.70;12.83;;;;;;;;;;6232097;23;20163;-89
2021/12/23 08:13:29;;;;;;;36.13;14.17;;;;;;;;;;6233978;23;20167;-87
2021/12/23 08:16:35;;;;;;;32.00;13.33;;;;;;;;;;6235505;22;20219;-89
2021/12/23 08:19:45;;;;;;;34.03;12.57;;;;;;;;;;6231987;23;20243;-90
2021/12/23 08:22:50;;;;;;;31.30;12.17;;;;;;;;;;6234185;23;20224;-86
2021/12/23 08:25:55;;;;;;;33.00;13.30;;;;;;;;;;6235008;23;20375;-89
2021/12/23 08:29:01;;;;;;;37.40;13.17;;;;;;;;;;6235967;22;20195;-89
2021/12/23 08:32:06;;;;;;;30.60;12.53;;;;;;;;;;6235898;23;20178;-89
2021/12/23 08:35:13;;;;;;;35.47;12.63;;;;;;;;;;6236342;22;20215;-88
2021/12/23 08:38:20;;;;;;;33.80;12.60;;;;;;;;;;6234825;23;20175;-90
2021/12/23 08:41:25;;;;;;;35.47;12.90;;;;;;;;;;6234217;22;20178;-90
2021/12/23 08:44:33;;;;;;;36.00;12.93;;;;;;;;;;6233229;23;20231;-90
2021/12/23 08:47:46;;;;;;;31.27;12.07;;;;;;;;;;6233881;23;20292;-87
2021/12/23 08:51:03;;;;;;;36.90;11.27;;;;;;;;;;6233941;22;20190;-90
2021/12/23 08:54:09;;;;;;;38.07;13.07;;;;;;;;;;6235277;23;20155;-89
2021/12/23 08:57:15;;;;;;;32.30;12.10;;;;;;;;;;6235215;23;20166;-88
2021/12/23 09:00:20;;;;;;;42.47;13.33;;;;;;;;;;6233092;23;20167;-88
2021/12/23 09:03:26;;;;;;;39.07;14.43;;;;;;;;;;6232099;23;20163;-89
2021/12/23 09:06:38;;;;;;;40.43;12.37;;;;;;;;;;6231355;23;20179;-89
2021/12/23 09:09:46;;;;;;;40.77;15.47;;;;;;;;;;6231905;23;20171;-88
2021/12/23 09:12:52;;;;;;;37.43;13.63;;;;;;;;;;6232510;23;20171;-91
2021/12/23 09:15:58;;;;;;;51.37;15.67;;;;;;;;;;6231726;23;20151;-89
2021/12/23 09:19:04;;;;;;;38.40;14.00;;;;;;;;;;6233227;23;20159;-89
2021/12/23 09:22:17;;;;;;;38.47;15.50;;;;;;;;;;6232540;23;20167;-90
2021/12/23 09:25:29;;;;;;;46.43;16.00;;;;;;;;;;6233437;22;20167;-89
2021/12/23 09:28:42;;;;;;;46.20;15.63;;;;;;;;;;6233613;22;20622;-91
2021/12/23 09:35:12;;;;;;;48.60;17.30;;;;;;;;;;6231786;22;20186;-89
2021/12/23 09:38:24;;;;;;;48.50;16.80;;;;;;;;;;6232536;22;20182;-89
2021/12/23 09:41:30;;;;;;;53.77;17.47;;;;;;;;;;6235784;23;20171;-91
2021/12/23 09:44:36;;;;;;;47.10;17.63;;;;;;;;;;6232950;23;20175;-91
2021/12/23 09:47:42;;;;;;;49.97;17.27;;;;;;;;;;6233767;22;20221;-88
2021/12/23 09:50:47;;;;;;;57.43;16.63;;;;;;;;;;6232326;22;20191;-89
2021/12/23 09:53:58;;;;;;;53.77;19.07;;;;;;;;;;6233628;23;20174;-91
2021/12/23 09:57:04;;;;;;;55.53;20.23;;;;;;;;;;6231832;22;20183;-91
2021/12/23 10:00:12;;;;;;;54.87;17.80;;;;;;;;;;6232590;23;20159;-91
2021/12/23 10:03:20;;;;;;;54.87;19.77;;;;;;;;;;6233144;22;20206;-89
2021/12/23 10:06:26;;;;;;;57.57;19.73;;;;;;;;;;6235092;23;20167;-90
2021/12/23 10:09:51;;;;;;;147.27;38.03;;;;;;;;;;6234292;22;20218;-92
2021/12/23 10:26:52;;;;;;;56.93;20.67;;;;;;;;;;6235956;22;20163;-92
2021/12/23 10:30:32;;;;;;;100.10;29.20;;;;;;;;;;6231536;23;20155;-89
2021/12/23 10:37:03;;;;;;;67.70;20.60;;;;;;;;;;6234142;22;20175;-89
2021/12/23 10:37:15;;;;;;;55.50;20.97;;;;;;;;;;6232066;22;20171;-89
2021/12/23 10:40:21;;;;;;;62.37;21.03;;;;;;;;;;6233727;22;20158;-90
2021/12/23 10:43:32;;;;;;;54.00;19.23;;;;;;;;;;6232375;22;20214;-89
2021/12/23 10:46:40;;;;;;;62.97;20.60;;;;;;;;;;6232610;23;20482;-91
2021/12/23 10:49:52;;;;;;;56.60;18.87;;;;;;;;;;6233387;22;20251;-90
2021/12/23 10:53:03;;;;;;;56.53;19.67;;;;;;;;;;6233372;23;20209;-92
2021/12/23 10:59:34;;;;;;;57.73;20.93;;;;;;;;;;6231636;22;20174;-90
2021/12/23 11:02:41;;;;;;;65.30;21.27;;;;;;;;;;6234731;23;20164;-91
2021/12/23 11:05:55;;;;;;;56.83;18.10;;;;;;;;;;6237725;22;20190;-91
2021/12/23 16:52:51;;;;;;;89.40;32.27;;;;;;;;;;6230810;22;20231;-90
2021/12/23 16:56:14;;;;;;;77.90;26.67;;;;;;;;;;6235803;22;20171;-91
2021/12/23 16:59:20;;;;;;;86.73;29.00;;;;;;;;;;6236042;23;20707;-88
2021/12/23 17:02:26;;;;;;;163.60;51.33;;;;;;;;;;6237415;22;20171;-90
2021/12/23 17:05:34;;;;;;;95.33;31.53;;;;;;;;;;6236004;22;20167;-90
2021/12/23 17:08:43;;;;;;;63.33;22.43;;;;;;;;;;6236163;22;20195;-90
2021/12/23 17:11:49;;;;;;;85.83;28.20;;;;;;;;;;6234856;22;20171;-89
2021/12/23 17:14:54;;;;;;;87.07;30.43;;;;;;;;;;6234820;22;20154;-90
2021/12/23 17:18:02;;;;;;;91.27;30.80;;;;;;;;;;6235315;22;20278;-89
2021/12/23 17:24:34;;;;;;;143.53;47.77;;;;;;;;;;6235494;22;20159;-90
2021/12/23 17:27:39;;;;;;;277.13;89.97;;;;;;;;;;6235774;22;20646;-89
2021/12/23 17:30:45;;;;;;;69.67;23.83;;;;;;;;;;6233888;22;20624;-90
2021/12/23 17:33:51;;;;;;;84.10;29.30;;;;;;;;;;6234021;22;20204;-89
2021/12/23 17:36:56;;;;;;;97.33;31.07;;;;;;;;;;6232940;23;20155;-91
2021/12/23 17:43:22;;;;;;;66.90;23.20;;;;;;;;;;6236763;22;20263;-90
2021/12/23 17:46:28;;;;;;;73.50;25.93;;;;;;;;;;6235467;22;20159;-91
2021/12/23 17:49:33;;;;;;;66.43;23.03;;;;;;;;;;6235333;23;20513;-89
2021/12/23 17:52:38;;;;;;;84.60;29.33;;;;;;;;;;6235876;22;20206;-91
2021/12/23 17:55:46;;;;;;;152.70;46.70;;;;;;;;;;6234172;22;20210;-90
2021/12/23 17:58:51;;;;;;;106.83;38.87;;;;;;;;;;6235302;22;20252;-89
2021/12/23 18:01:57;;;;;;;68.67;24.83;;;;;;;;;;6236087;22;20162;-89
2021/12/23 18:05:05;;;;;;;73.23;25.17;;;;;;;;;;6236613;22;20249;-91
2021/12/23 18:08:11;;;;;;;78.10;26.80;;;;;;;;;;6237534;22;20215;-92
2021/12/23 20:22:13;;;;;;;69.00;22.93;;;;;;;;;;6224677;23;20203;-89
2021/12/23 20:25:20;;;;;;;72.17;23.97;;;;;;;;;;6223237;23;20184;-88
2021/12/23 20:28:24;;;;;;;72.77;24.27;;;;;;;;;;6221807;23;20224;-90
2021/12/23 20:31:30;;;;;;;76.40;26.43;;;;;;;;;;6223149;23;20180;-90
2021/12/23 20:34:36;;;;;;;69.07;23.97;;;;;;;;;;6222463;23;20626;-91
2021/12/23 20:37:43;;;;;;;78.17;25.53;;;;;;;;;;6204463;23;20148;-90
2021/12/23 20:40:49;;;;;;;73.00;25.83;;;;;;;;;;6221243;23;20255;-91
2021/12/23 20:43:55;;;;;;;76.70;25.77;;;;;;;;;;6222828;23;20155;-91
2021/12/23 20:47:00;;;;;;;79.77;24.40;;;;;;;;;;6222933;23;20234;-92
2021/12/23 20:50:14;;;;;;;75.10;24.33;;;;;;;;;;6223308;23;20247;-92
2021/12/23 20:53:28;;;;;;;62.60;21.73;;;;;;;;;;6205246;23;20172;-91
2021/12/23 20:56:33;;;;;;;66.60;22.63;;;;;;;;;;6222101;23;20192;-91
2021/12/23 20:59:40;;;;;;;77.23;25.23;;;;;;;;;;6220853;23;20199;-92
2021/12/23 21:02:45;;;;;;;72.50;24.23;;;;;;;;;;6222675;23;20159;-89
2021/12/23 21:05:51;;;;;;;73.77;24.27;;;;;;;;;;6222937;23;20151;-90
2021/12/23 21:08:59;;;;;;;70.90;24.03;;;;;;;;;;6221659;23;20232;-91
2021/12/23 21:12:04;;;;;;;75.40;25.40;;;;;;;;;;6221095;23;20176;-87
2021/12/23 21:15:10;;;;;;;74.80;25.53;;;;;;;;;;6221051;23;20223;-91
2021/12/23 21:18:16;;;;;;;72.80;25.00;;;;;;;;;;6222123;23;20217;-90
2021/12/23 21:21:22;;;;;;;77.40;26.77;;;;;;;;;;6222814;23;20307;-88
2021/12/23 21:24:30;;;;;;;74.73;26.40;;;;;;;;;;6224705;23;20174;-89
2021/12/23 21:27:39;;;;;;;72.67;25.97;;;;;;;;;;6222370;23;20255;-90
2021/12/23 21:30:44;;;;;;;75.20;26.20;;;;;;;;;;6221331;23;20195;-91
2021/12/23 21:33:50;;;;;;;75.50;26.53;;;;;;;;;;6205022;23;20168;-89
2021/12/23 21:36:55;;;;;;;71.37;26.77;;;;;;;;;;6219445;23;20183;-90
2021/12/23 21:40:01;;;;;;;76.60;27.07;;;;;;;;;;6203007;23;20203;-89
2021/12/23 21:43:07;;;;;;;86.63;29.90;;;;;;;;;;6202232;23;20155;-90
2021/12/23 21:46:13;;;;;;;99.90;35.87;;;;;;;;;;6201953;23;20147;-88
2021/12/23 21:49:18;;;;;;;69.97;24.90;;;;;;;;;;6221126;23;20189;-90
2021/12/23 21:52:24;;;;;;;89.20;31.80;;;;;;;;;;6203255;23;20176;-90
2021/12/23 21:55:31;;;;;;;72.10;24.27;;;;;;;;;;6202936;23;20164;-91
2021/12/23 21:58:36;;;;;;;70.10;24.97;;;;;;;;;;6202579;23;20176;-90
2021/12/23 22:01:44;;;;;;;71.70;24.93;;;;;;;;;;6220049;23;20167;-90
2021/12/23 22:04:49;;;;;;;64.00;23.47;;;;;;;;;;6221526;23;20510;-90
2021/12/23 22:07:54;;;;;;;81.30;26.80;;;;;;;;;;6204715;23;20615;-91
2021/12/23 22:11:03;;;;;;;71.97;25.93;;;;;;;;;;6221306;23;20204;-91
2021/12/23 23:19:12;;;;;;;65.80;22.60;;;;;;;;;;6232583;23;20171;-89
2021/12/23 23:22:18;;;;;;;62.90;22.93;;;;;;;;;;6232093;22;20155;-91
2021/12/23 23:25:23;;;;;;;62.70;22.73;;;;;;;;;;6234733;22;20158;-89
2021/12/23 23:35:20;;;;;;;65.60;23.10;;;;;;;;;;6235425;22;20156;-90
2021/12/23 23:38:44;;;;;;;63.90;23.20;;;;;;;;;;6237021;22;20178;-90
2021/12/23 23:41:52;;;;;;;58.67;22.40;;;;;;;;;;6235509;23;20168;-91
2021/12/23 23:44:57;;;;;;;68.30;23.53;;;;;;;;;;6235219;22;20298;-88
2021/12/23 23:48:06;;;;;;;65.40;23.23;;;;;;;;;;6235654;22;20223;-90
2021/12/23 23:51:13;;;;;;;61.93;22.40;;;;;;;;;;6235549;22;20650;-91
2021/12/23 23:54:20;;;;;;;65.57;23.37;;;;;;;;;;6235163;22;20232;-89
2021/12/23 23:57:26;;;;;;;61.97;22.43;;;;;;;;;;6231880;22;20283;-89
